Sierra Nevada Aquatic Research Lab (SNARL) Reserve, Santa Monica Mtns, California Weather observations

Data are for 10 minute period ending at time listed.
 Day   Time   Solar   Ave.   Ave.  Ave.  Vector  Max.   Baro.   Total    
  of    of     Rad.   Air    Rel.  Wind   Wind   Wind  Press.  Precip.   
Year   Day            Temp.  Hum.  Speed  Dir.   Gust                    
2015   (PST)  Kw/m2    F      %     mph   deg.    mph    mb.     in.     
-------------------------------------------------------------------------
  27   21:10   0.00   34.7    83    3.0   257     4.1   788.8    0.00 
  27   21:20   0.00   34.1    83    2.2   255     3.9   788.8    0.00 
  27   21:30   0.00   33.0    85    1.4   277     2.4   788.8    0.00 
  27   21:40   0.00   32.7    85    4.1   260     5.6   788.8    0.00 
  27   21:50   0.00   32.3    87    1.9   236     4.0   788.9    0.00 
  27   22:00   0.00   32.6    86    1.1   277     2.6   789.0    0.00 
  27   22:10   0.00   32.2    86    0.5   300     2.0   789.0    0.00 
  27   22:20   0.00   31.7    88    1.0    30     2.3   789.0    0.00 
  27   22:30   0.00   31.6    88    0.2   192     1.6   789.1    0.00 
  27   22:40   0.00   31.6    90    0.2    84     1.1   789.1    0.00 
  27   22:50   0.00   32.3    89    0.3   355     1.1   789.2    0.00 
  27   23:00   0.00   32.4    89    0.6   256     2.5   789.3    0.00 
  27   23:10   0.00   33.4    87    4.2   259     8.3   789.4    0.00 
  27   23:20   0.00   34.6    83    6.1   253     8.9   789.4    0.00 
  27   23:30   0.00   35.1    81    3.7   268     6.5   789.5    0.00 
  27   23:40   0.00   35.3    80    2.5   277     4.7   789.5    0.00 
  27   23:50   0.00   35.4    80    3.4   272     5.6   789.5    0.00 
  28    0:00   0.00   35.5    79    3.0   266     6.1   789.4    0.00 
  28    0:10   0.00   35.3    79    3.9   262     6.0   789.3    0.00 
  28    0:20   0.00   35.2    79    4.6   260     6.1   789.2    0.00 
  28    0:30   0.00   35.2    79    3.2   262     5.1   789.2    0.00 
  28    0:40   0.00   35.2    78    2.8   250     4.2   789.1    0.00 
  28    0:50   0.00   35.2    77    2.5   256     3.9   789.1    0.00 
  28    1:00   0.00   35.1    77    2.2   271     3.9   789.0    0.00 
  28    1:10   0.00   34.8    78    3.3   256     4.7   788.9    0.00 
  28    1:20   0.00   34.5    79    4.2   256     5.8   788.9    0.00 
  28    1:30   0.00   34.6    78    2.9   255     5.1   788.8    0.00 
  28    1:40   0.00   34.6    77    1.9   255     3.5   788.8    0.00 
  28    1:50   0.00   34.4    78    2.6   276     3.9   788.8    0.00 
  28    2:00   0.00   33.8    78    2.4   300     4.5   788.8    0.00 
  28    2:10   0.00   33.2    79    1.1   272     4.2   788.9    0.00 
  28    2:20   0.00   32.0    79    2.8   240     4.1   788.9    0.00 
  28    2:30   0.00   29.3    85    3.0   218     4.8   789.0    0.00 
  28    2:40   0.00   28.5    87    3.6   220     5.1   789.1    0.00 
  28    2:50   0.00   28.7    85    2.6   267     4.8   789.1    0.00 
  28    3:00   0.00   28.2    85    1.5   333     2.9   789.1    0.00 
  28    3:10   0.00   26.7    88    0.4   286     2.9   789.1    0.00 
  28    3:20   0.00   26.2    88    2.3   200     3.5   789.1    0.00 
  28    3:30   0.00   25.0    90    2.2   211     3.5   789.2    0.00 
  28    3:40   0.00   23.8    90    1.0   301     2.6   789.2    0.00 
  28    3:50   0.00   23.6    91    0.3   131     1.4   789.2    0.00 
  28    4:00   0.00   23.2    92    0.4   290     1.6   789.2    0.00 
  28    4:10   0.00   23.2    90    1.2   245     2.4   789.3    0.00 
  28    4:20   0.00   21.4    91    1.4   211     2.6   789.3    0.00 
  28    4:30   0.00   21.9    92    0.1    55     1.4   789.2    0.00 
  28    4:40   0.00   20.8    92    1.5   287     2.8   789.2    0.00 
  28    4:50   0.00   20.3    92    2.5   164     4.2   789.3    0.00 
  28    5:00   0.00   20.1    92    1.6   264     3.1   789.3    0.00 
  28    5:10   0.00   20.2    93    1.7   318     3.7   789.2    0.00 
  28    5:20   0.00   19.7    93    1.0   139     1.8   789.3    0.00 
  28    5:30   0.00   21.0    94    0.3   294     1.4   789.3    0.00 
  28    5:40   0.00   20.6    91    2.2   315     4.6   789.4    0.00 
  28    5:50   0.00   20.4    93    0.6    10     2.3   789.6    0.00 
  28    6:00   0.00   21.3    92    1.1   134     2.9   789.7    0.00 
  28    6:10   0.00   20.6    91    0.6   121     1.8   789.8    0.00 
  28    6:20   0.00   19.8    91    0.9   235     2.4   789.8    0.00 
  28    6:30   0.00   18.5    91    1.1   211     2.7   790.0    0.00 
  28    6:40   0.00   19.2    93    0.9   218     4.7   790.0    0.00 
  28    6:50   0.00   19.2    92    0.8   202     2.5   789.9    0.00 
  28    7:00   0.00   20.0    91    0.6   173     1.7   789.9    0.00 
  28    7:10   0.00   18.7    89    1.5    81     2.5   789.9    0.00 
  28    7:20   0.00   19.0    92    1.2   175     3.2   789.9    0.00 
  28    7:30   0.01   18.6    92    2.0   211     2.9   789.9    0.00 
  28    7:40   0.01   18.8    91    2.6   238     5.0   789.9    0.00 
  28    7:50   0.06   20.6    90    1.9   269     3.9   789.9    0.00 
  28    8:00   0.11   22.7    84    0.4     7     1.8   790.0    0.00 
  28    8:10   0.15   26.8    82    0.7   329     2.7   790.0    0.00 
  28    8:20   0.18   30.7    74    1.1   147     2.9   790.1    0.00 
  28    8:30   0.18   31.3    72    0.6   172     2.7   790.2    0.00 
  28    8:40   0.23   32.1    71    1.5   359     2.6   790.2    0.00 
  28    8:50   0.28   33.8    69    0.5   120     2.3   790.1    0.00 
  28    9:00   0.31   35.8    62    1.1   118     3.0   790.2    0.00 
  28    9:10   0.34   36.0    62    1.2    30     2.2   790.2    0.00 
  28    9:20   0.36   37.3    60    1.2    67     3.4   790.2    0.00 
  28    9:30   0.36   38.3    56    1.6    50     4.3   790.2    0.00 
  28    9:40   0.39   38.2    58    1.7    37     3.5   790.2    0.00 
  28    9:50   0.44   39.7    58    1.9    75     3.9   790.2    0.00 
  28   10:00   0.46   41.4    54    1.8    39     4.4   790.2    0.00 
  28   10:10   0.48   41.3    52    1.9    23     4.7   790.1    0.00 
  28   10:20   0.50   42.2    49    2.0    10     4.7   790.1    0.00 
  28   10:30   0.52   42.0    50    2.1    48     6.1   789.9    0.00 
  28   10:40   0.54   43.1    50    2.1    51     5.4   789.8    0.00 
  28   10:50   0.55   43.2    48    2.7    43     5.7   789.7    0.00 
  28   11:00   0.56   43.0    49    2.8   113     6.9   789.5    0.00 
  28   11:10   0.58   43.7    46    2.6    90     5.1   789.4    0.00 
  28   11:20   0.59   44.5    42    2.6    87     6.7   789.2    0.00 
  28   11:30   0.60   45.3    42    2.8   113     7.0   789.0    0.00 
  28   11:40   0.61   45.4    41    3.7    99     9.0   788.9    0.00 
  28   11:50   0.60   45.5    41    2.9    89     7.9   788.8    0.00 
  28   12:00   0.58   45.8    40    4.3   134     8.1   788.7    0.00 
  28   12:10   0.58   46.4    39    3.0   109     6.9   788.5    0.00 
  28   12:20   0.60   46.8    38    5.2   103     9.9   788.3    0.00 
  28   12:30   0.59   46.7    39    6.0   125     9.7   788.2    0.00 
  28   12:40   0.59   46.8    38    2.1    95     6.5   788.1    0.00 
  28   12:50   0.55   47.3    38    4.8   142     9.9   788.0    0.00 
  28   13:00   0.54   47.4    37    5.9   126    10.2   787.9    0.00 
  28   13:10   0.51   46.9    38    6.8   122    12.9   787.9    0.00 
  28   13:20   0.54   47.0    38    8.0   106    12.5   787.8    0.00 
  28   13:30   0.55   47.4    38    8.1   114    15.1   787.7    0.00 
  28   13:40   0.50   47.1    38    6.7   100    11.2   787.6    0.00 
  28   13:50   0.50   47.4    38    5.5   150    10.7   787.5    0.00 
  28   14:00   0.49   47.8    38    6.8   122    11.6   787.4    0.00 
  28   14:10   0.49   47.9    38    5.2   114     9.7   787.4    0.00 
  28   14:20   0.48   48.7    37    3.6    97     8.0   787.4    0.00 
  28   14:30   0.46   48.4    37    4.2    45     8.6   787.4    0.00 
  28   14:40   0.45   49.2    36    4.0    44     8.0   787.3    0.00 
  28   14:50   0.39   48.6    36    4.5    81     8.4   787.3    0.00 
  28   15:00   0.36   48.0    37    5.0   120     8.8   787.2    0.00 
  28   15:10   0.36   48.0    37    5.7   124     9.1   787.2    0.00 
  28   15:20   0.29   48.0    38    6.6   121    10.7   787.2    0.00 
  28   15:30   0.23   46.9    40    7.4   124    10.3   787.3    0.00 
  28   15:40   0.28   47.6    40    5.7   123     8.4   787.3    0.00 
  28   15:50   0.16   46.8    42    5.6   123     8.1   787.3    0.00 
  28   16:00   0.14   46.3    42    6.8   112     9.8   787.2    0.00 
  28   16:10   0.04   44.8    45    7.7   119     9.6   787.2    0.00 
  28   16:20   0.05   43.5    47    6.8   125     9.5   787.2    0.00 
  28   16:30   0.05   42.8    48    6.4   129     9.6   787.3    0.00 
  28   16:40   0.04   42.6    49    8.7   120    11.8   787.5    0.00 
  28   16:50   0.04   42.2    50    8.4   122    12.1   787.6    0.00 
  28   17:00   0.02   41.8    50    7.7   118    10.3   787.6    0.00 
  28   17:10   0.01   41.3    52    7.9   116    11.0   787.7    0.00 
  28   17:20   0.00   40.6    52    8.5   115    11.3   787.8    0.00 
  28   17:30   0.00   39.9    54    8.4   109    11.2   787.9    0.00 
  28   17:40   0.00   39.3    55    8.9   108    11.1   788.0    0.00 
  28   17:50   0.00   38.8    56    8.7   114    10.6   788.1    0.00 
  28   18:00   0.00   39.3    55    8.3   107    11.3   788.1    0.00 
  28   18:10   0.00   38.6    56    7.8   110    11.2   788.2    0.00 
  28   18:20   0.00   38.4    58    7.9   108    10.7   788.3    0.00 
  28   18:30   0.00   37.9    59    7.5   109     9.3   788.3    0.00 
  28   18:40   0.00   37.5    60    6.3   103     8.0   788.3    0.00 
  28   18:50   0.00   36.7    62    6.9   108    10.5   788.3    0.00 
  28   19:00   0.00   36.3    62    3.9   108     7.0   788.4    0.00 
  28   19:10   0.00   35.6    65    2.9    48     4.7   788.6    0.00 
  28   19:20   0.00   34.6    65    1.1   105     2.4   788.7    0.00 
  28   19:30   0.00   32.0    68    1.5   257     3.2   788.8    0.00 
  28   19:40   0.00   32.0    69    1.4    36     4.2   788.9    0.00 
  28   19:50   0.00   30.9    70    0.5   316     1.8   788.9    0.00 
  28   20:00   0.00   30.3    73    1.4   276     2.2   788.9    0.00 
  28   20:10   0.00   30.5    73    1.2   278     2.3   789.0    0.00 
  28   20:20   0.00   29.2    74    1.1   267     1.7   789.0    0.00 
  28   20:30   0.00   28.9    76    2.8   238     4.7   789.0    0.00 
  28   20:40   0.00   29.7    75    3.5   237     4.7   789.0    0.00 
  28   20:50   0.00   30.4    73    2.6   264     3.7   789.1    0.00 
  28   21:00   0.00   29.0    75    2.3   312     4.0   789.1    0.00 

Return to SNARL Reserve graphs page.


Western Regional Climate Center,wrcc@dri.edu